Time;durP1;ratioP1;P1;durP2;ratioP2;P2;SDS_P1;SDS_P2;PMS_P1;PMS_P2;Temp;Humidity;BMP_temperature;BMP_pressure;BME280_temperature;BME280_humidity;BME280_pressure;Samples;Min_cycle;Max_cycle;Signal;HPM_P1;HPM_P2
2021/06/03 00:02:10;;;;;;;4.00;3.65;;;;;;;19.32;64.68;97480.41;5027274;28;20562;-79
2021/06/03 00:04:39;;;;;;;3.75;3.45;;;;;;;19.30;64.46;97477.28;5035822;28;20085;-79
2021/06/03 00:07:05;;;;;;;4.40;4.00;;;;;;;19.25;64.67;97481.56;5049839;28;20046;-79
2021/06/03 00:09:31;;;;;;;3.88;3.58;;;;;;;19.24;64.82;97481.88;5041540;28;20476;-79
2021/06/03 00:11:58;;;;;;;4.88;4.20;;;;;;;19.24;64.83;97481.88;5018801;28;20028;-79
2021/06/03 00:14:24;;;;;;;4.50;4.10;;;;;;;19.21;64.72;97493.81;5012308;28;20029;-79
2021/06/03 00:16:50;;;;;;;4.72;4.18;;;;;;;19.20;64.86;97492.22;5018263;28;20029;-79
2021/06/03 00:19:17;;;;;;;4.72;4.32;;;;;;;19.08;65.07;97486.66;5023645;28;20116;-78
2021/06/03 00:21:44;;;;;;;5.05;4.22;;;;;;;19.04;65.23;97483.03;5030853;28;20067;-79
2021/06/03 00:24:12;;;;;;;4.93;4.43;;;;;;;18.98;65.34;97481.56;5036386;28;20028;-78
2021/06/03 00:26:39;;;;;;;4.88;4.47;;;;;;;18.99;65.25;97483.91;5052675;28;20044;-78
2021/06/03 00:29:06;;;;;;;4.88;4.47;;;;;;;19.03;64.92;97481.47;5029176;28;20043;-79
2021/06/03 00:31:32;;;;;;;4.28;3.88;;;;;;;19.00;65.29;97476.75;5035342;28;20044;-79
2021/06/03 00:33:59;;;;;;;3.95;3.65;;;;;;;18.97;65.04;97487.91;5016525;28;20036;-79
2021/06/03 00:36:25;;;;;;;5.55;4.18;;;;;;;18.94;65.05;97483.22;5019253;28;20121;-79
2021/06/03 00:38:51;;;;;;;4.68;4.07;;;;;;;18.92;65.29;97485.34;5035514;28;20029;-79
2021/06/03 00:41:18;;;;;;;4.85;4.28;;;;;;;18.86;65.44;97482.78;5051634;28;20093;-79
2021/06/03 00:43:45;;;;;;;5.38;4.40;;;;;;;18.85;65.34;97494.44;5019487;28;20337;-78
2021/06/03 00:46:11;;;;;;;4.93;4.40;;;;;;;18.80;65.39;97480.50;5035726;28;20060;-78
2021/06/03 00:48:37;;;;;;;4.63;4.22;;;;;;;18.76;65.67;97480.28;5034756;28;20067;-79
2021/06/03 00:51:05;;;;;;;3.95;3.65;;;;;;;18.73;65.09;97483.53;5027565;28;20033;-79
2021/06/03 00:53:31;;;;;;;4.68;3.97;;;;;;;18.67;65.23;97476.78;5028981;28;20068;-79
2021/06/03 00:55:58;;;;;;;5.82;4.20;;;;;;;18.59;65.19;97483.47;4994111;28;20025;-78
2021/06/03 00:58:27;;;;;;;4.45;4.05;;;;;;;18.51;65.68;97486.78;5003157;28;20025;-78
2021/06/03 01:00:53;;;;;;;4.25;3.85;;;;;;;18.59;65.46;97487.97;5022528;28;20048;-78
2021/06/03 01:03:19;;;;;;;4.38;3.92;;;;;;;18.57;65.24;97492.75;5027285;28;20033;-79
2021/06/03 01:05:48;;;;;;;4.43;3.80;;;;;;;18.50;65.28;97493.13;5027443;28;20059;-79
2021/06/03 01:08:16;;;;;;;4.60;4.05;;;;;;;18.51;65.07;97495.47;5027422;28;20449;-79
2021/06/03 01:10:55;;;;;;;4.22;3.83;;;;;;;18.47;65.32;97491.84;5022005;28;20072;-79
2021/06/03 01:13:26;;;;;;;4.22;3.70;;;;;;;18.28;65.66;97497.16;5060814;28;20454;-79
2021/06/03 01:15:52;;;;;;;3.90;3.58;;;;;;;18.32;65.54;97498.13;5021459;28;20484;-79
2021/06/03 01:18:19;;;;;;;5.95;3.78;;;;;;;18.34;65.51;97497.84;5050751;28;20100;-79
2021/06/03 01:20:47;;;;;;;6.30;4.63;;;;;;;18.20;65.34;97494.34;5011327;28;20490;-79
2021/06/03 01:23:21;;;;;;;5.95;4.45;;;;;;;18.12;65.81;97498.44;5026081;28;20067;-79
2021/06/03 01:25:47;;;;;;;5.05;4.20;;;;;;;18.21;65.71;97501.97;5027630;28;20024;-78
2021/06/03 01:28:13;;;;;;;3.88;3.58;;;;;;;18.24;65.61;97506.69;5028761;28;20053;-79
2021/06/03 01:30:45;;;;;;;4.28;3.88;;;;;;;18.02;65.54;97501.22;5048785;28;20108;-79
2021/06/03 01:33:17;;;;;;;5.90;4.20;;;;;;;18.10;65.58;97511.13;5040955;28;20036;-79
2021/06/03 01:35:45;;;;;;;4.90;4.22;;;;;;;18.08;65.62;97508.75;5034506;28;20031;-78
2021/06/03 01:38:13;;;;;;;4.95;4.45;;;;;;;18.10;65.86;97514.53;5018194;28;20120;-79
2021/06/03 01:40:40;;;;;;;5.75;4.47;;;;;;;18.08;65.87;97508.75;5017824;28;20512;-79
2021/06/03 01:43:07;;;;;;;4.45;4.05;;;;;;;18.10;65.96;97514.53;5022990;28;20041;-79
2021/06/03 01:45:33;;;;;;;4.82;4.32;;;;;;;18.07;66.24;97520.34;5032558;28;20032;-79
2021/06/03 01:47:59;;;;;;;4.78;4.38;;;;;;;18.04;66.44;97520.91;5028129;28;20461;-78
2021/06/03 01:50:24;;;;;;;4.38;3.97;;;;;;;18.08;66.04;97529.84;5050442;28;20033;-79
2021/06/03 01:52:50;;;;;;;5.03;3.90;;;;;;;18.03;66.12;97524.63;5033920;28;20052;-79
2021/06/03 01:55:16;;;;;;;4.57;4.10;;;;;;;18.05;66.12;97527.78;5017948;28;20041;-79
2021/06/03 01:57:44;;;;;;;4.40;4.00;;;;;;;17.95;66.08;97520.00;5015799;28;20028;-79
2021/06/03 02:00:11;;;;;;;4.53;4.13;;;;;;;17.99;66.12;97528.13;5048868;28;20364;-79
2021/06/03 02:02:37;;;;;;;4.18;3.85;;;;;;;18.00;66.02;97522.56;5004520;28;20037;-79
2021/06/03 02:05:04;;;;;;;4.80;4.30;;;;;;;17.96;66.03;97527.63;5040190;28;20400;-79
2021/06/03 02:07:29;;;;;;;4.63;4.15;;;;;;;17.92;66.40;97526.63;5027549;28;20399;-79
2021/06/03 02:09:54;;;;;;;4.50;4.10;;;;;;;17.88;66.40;97520.34;5033866;28;20028;-79
2021/06/03 02:12:20;;;;;;;4.50;4.10;;;;;;;17.89;66.18;97521.13;5031032;28;20119;-79
2021/06/03 02:14:48;;;;;;;4.82;4.22;;;;;;;17.78;66.00;97526.47;5031554;28;20055;-79
2021/06/03 02:17:22;;;;;;;4.30;3.90;;;;;;;17.74;66.47;97532.63;5050166;28;20039;-79
2021/06/03 02:19:55;;;;;;;4.88;4.10;;;;;;;17.89;66.33;97526.38;5017015;28;20613;-79
2021/06/03 02:22:22;;;;;;;3.97;3.60;;;;;;;17.85;66.17;97525.38;5033797;28;20437;-79
2021/06/03 02:24:49;;;;;;;4.78;4.30;;;;;;;17.82;66.06;97531.19;5049864;28;20075;-80
2021/06/03 02:27:15;;;;;;;3.90;3.60;;;;;;;17.88;66.20;97524.84;5050038;28;20495;-80
2021/06/03 02:29:41;;;;;;;6.30;3.80;;;;;;;17.82;66.24;97518.03;5047247;28;20028;-79
2021/06/03 02:32:07;;;;;;;5.60;3.83;;;;;;;17.82;66.01;97523.28;5033452;28;20379;-80
2021/06/03 02:34:32;;;;;;;4.50;4.05;;;;;;;17.79;66.12;97527.28;5024445;28;20063;-80
2021/06/03 02:36:57;;;;;;;4.80;4.00;;;;;;;17.77;66.06;97524.94;5033752;28;20043;-79
2021/06/03 02:39:23;;;;;;;6.97;5.00;;;;;;;17.73;66.13;97534.44;5033267;28;20028;-79
2021/06/03 02:41:49;;;;;;;5.57;4.13;;;;;;;17.72;66.37;97532.13;5015574;28;20028;-80
2021/06/03 02:44:15;;;;;;;4.65;4.25;;;;;;;17.68;66.18;97529.25;5016425;28;20453;-79
2021/06/03 02:46:40;;;;;;;4.55;4.15;;;;;;;17.63;66.28;97528.53;5027164;28;20107;-79
2021/06/03 02:49:06;;;;;;;4.18;3.85;;;;;;;17.60;66.22;97524.63;5016739;28;20030;-79
2021/06/03 02:51:31;;;;;;;5.55;4.50;;;;;;;17.64;66.28;97530.88;5050432;28;20071;-79
2021/06/03 02:53:57;;;;;;;5.28;4.82;;;;;;;17.61;66.51;97528.81;5033324;28;20024;-79
2021/06/03 02:56:22;;;;;;;4.47;4.07;;;;;;;17.60;66.07;97528.03;5050350;28;20024;-79
2021/06/03 02:58:48;;;;;;;4.75;3.50;;;;;;;17.65;65.97;97537.72;5033125;28;20087;-79
2021/06/03 03:01:13;;;;;;;6.60;4.45;;;;;;;17.60;66.45;97535.16;5020264;28;20515;-79
2021/06/03 03:03:39;;;;;;;4.50;4.07;;;;;;;17.61;66.23;97534.06;5006830;28;20403;-79
2021/06/03 03:06:04;;;;;;;4.90;4.40;;;;;;;17.61;66.22;97536.69;5049777;28;20043;-79
2021/06/03 03:08:30;;;;;;;4.50;4.10;;;;;;;17.55;66.58;97546.50;5032943;28;20383;-79
2021/06/03 03:10:57;;;;;;;4.80;4.40;;;;;;;17.55;66.41;97548.38;5033056;28;20470;-79
2021/06/03 03:13:23;;;;;;;4.82;4.32;;;;;;;17.69;66.26;97549.25;5017635;28;20369;-79
2021/06/03 03:15:49;;;;;;;4.70;4.30;;;;;;;17.55;66.46;97538.63;5064826;28;20116;-79
2021/06/03 03:18:15;;;;;;;5.40;4.25;;;;;;;17.70;66.62;97548.19;5036343;28;20566;-79
2021/06/03 03:20:41;;;;;;;4.88;4.20;;;;;;;17.70;66.75;97553.47;5053043;28;20086;-79
2021/06/03 03:23:08;;;;;;;4.28;3.88;;;;;;;17.72;66.68;97540.78;5020222;28;20048;-79
2021/06/03 03:25:35;;;;;;;5.93;4.30;;;;;;;17.78;66.53;97541.50;5019902;28;20382;-79
2021/06/03 03:28:01;;;;;;;4.20;3.88;;;;;;;17.86;66.55;97540.91;5025574;28;20025;-79
2021/06/03 03:30:28;;;;;;;4.80;4.40;;;;;;;17.83;66.50;97532.78;5030854;28;20040;-79
2021/06/03 03:32:53;;;;;;;4.90;4.43;;;;;;;17.91;66.54;97538.22;5045146;28;20037;-79
2021/06/03 03:35:19;;;;;;;4.78;4.40;;;;;;;17.92;66.37;97541.63;5013606;28;20085;-79
2021/06/03 03:37:45;;;;;;;4.43;4.03;;;;;;;17.94;66.58;97550.03;5037305;28;20728;-78
2021/06/03 03:40:17;;;;;;;5.22;4.72;;;;;;;17.76;67.18;97549.69;5029626;28;20031;-79
2021/06/03 03:42:43;;;;;;;4.50;4.10;;;;;;;17.90;67.02;97549.81;5052840;28;20152;-79
2021/06/03 03:45:11;;;;;;;5.55;4.70;;;;;;;17.84;66.62;97550.94;5036175;28;20527;-79
2021/06/03 03:47:37;;;;;;;4.32;3.92;;;;;;;17.93;66.68;97553.75;5030936;28;20036;-79
2021/06/03 03:50:07;;;;;;;4.38;4.00;;;;;;;17.96;66.63;97553.97;5035942;28;20027;-79
2021/06/03 03:52:33;;;;;;;5.50;4.97;;;;;;;18.09;67.24;97552.47;5028702;28;20476;-79
2021/06/03 03:55:00;;;;;;;4.70;4.20;;;;;;;18.21;66.97;97553.91;5017014;28;20035;-79
2021/06/03 03:57:25;;;;;;;5.40;4.20;;;;;;;18.26;67.41;97551.22;5052871;28;20039;-79
2021/06/03 03:59:51;;;;;;;4.80;4.25;;;;;;;18.37;67.44;97557.13;5019625;28;20468;-79
2021/06/03 04:02:17;;;;;;;6.82;4.63;;;;;;;18.44;67.43;97560.19;5047466;28;20078;-79
2021/06/03 04:04:42;;;;;;;5.70;4.50;;;;;;;18.41;66.83;97558.91;5013368;28;20109;-79
2021/06/03 04:07:07;;;;;;;5.07;4.13;;;;;;;18.40;66.51;97556.56;5061994;28;20487;-79
2021/06/03 04:09:33;;;;;;;4.25;3.85;;;;;;;18.39;66.54;97558.41;5035779;28;20071;-79
2021/06/03 04:11:58;;;;;;;4.90;4.40;;;;;;;18.37;66.05;97557.13;5033689;28;20032;-79
2021/06/03 04:14:23;;;;;;;4.53;4.10;;;;;;;18.34;66.27;97558.50;5020041;28;20373;-79
2021/06/03 04:16:49;;;;;;;4.50;4.10;;;;;;;18.36;66.44;97566.88;5046050;28;20463;-79
2021/06/03 04:19:15;;;;;;;4.40;4.00;;;;;;;18.33;66.60;97572.72;5018224;28;20082;-79
2021/06/03 04:21:40;;;;;;;4.68;4.05;;;;;;;18.36;66.48;97563.47;5019378;28;20032;-78
2021/06/03 04:24:06;;;;;;;4.80;4.40;;;;;;;18.42;66.99;97576.31;5028298;28;20043;-79
2021/06/03 04:26:32;;;;;;;4.43;4.03;;;;;;;18.50;67.04;97578.28;5019145;28;20029;-79
2021/06/03 04:28:57;;;;;;;4.32;3.97;;;;;;;18.58;67.12;97581.38;5052008;28;20025;-79
2021/06/03 04:31:23;;;;;;;4.80;4.30;;;;;;;18.71;67.08;97578.78;5032056;28;20491;-79
2021/06/03 04:33:48;;;;;;;5.15;4.63;;;;;;;18.81;67.11;97577.81;5033553;28;20117;-79
2021/06/03 04:36:14;;;;;;;5.22;4.53;;;;;;;18.92;67.35;97586.41;5019204;28;20485;-79
2021/06/03 04:38:39;;;;;;;5.30;4.90;;;;;;;18.95;66.97;97580.53;5051845;28;20475;-79
2021/06/03 04:41:06;;;;;;;6.20;4.40;;;;;;;19.05;67.06;97587.50;5029091;28;20107;-79
2021/06/03 04:43:32;;;;;;;4.85;4.40;;;;;;;19.09;67.04;97583.25;5035549;28;20027;-79
2021/06/03 04:45:57;;;;;;;4.85;4.45;;;;;;;19.18;66.82;97589.41;5019333;28;20040;-79
2021/06/03 04:48:22;;;;;;;6.05;4.53;;;;;;;19.28;66.75;97580.53;5035692;28;20039;-78
2021/06/03 04:50:51;;;;;;;5.28;4.75;;;;;;;19.42;67.02;97580.56;5045691;28;20039;-79
2021/06/03 04:53:18;;;;;;;4.85;4.30;;;;;;;19.57;66.45;97582.13;5028624;28;20024;-79
2021/06/03 04:55:44;;;;;;;5.60;4.70;;;;;;;19.63;65.94;97581.72;5051743;28;20028;-79
2021/06/03 04:58:10;;;;;;;4.40;4.00;;;;;;;19.71;65.29;97585.56;5035148;28;20506;-79
2021/06/03 05:00:38;;;;;;;4.60;4.20;;;;;;;19.63;64.97;97580.97;5043441;28;20036;-79
2021/06/03 05:03:04;;;;;;;4.57;4.18;;;;;;;19.70;64.64;97591.91;5041793;28;20519;-79
2021/06/03 05:05:30;;;;;;;4.68;4.20;;;;;;;19.70;65.14;97591.16;5034156;28;20387;-79
2021/06/03 05:07:56;;;;;;;4.45;4.05;;;;;;;19.69;65.15;97589.56;5014373;28;20127;-79
2021/06/03 05:10:22;;;;;;;4.95;4.55;;;;;;;19.74;65.66;97589.47;5050360;28;20036;-79
2021/06/03 05:12:48;;;;;;;5.00;4.60;;;;;;;19.81;65.64;97588.03;5033611;28;20028;-79
2021/06/03 05:15:14;;;;;;;5.30;4.70;;;;;;;19.87;66.28;97594.00;5010983;28;20063;-79
2021/06/03 05:17:40;;;;;;;4.97;4.57;;;;;;;19.95;65.85;97592.53;5003908;28;20025;-79
2021/06/03 05:20:08;;;;;;;4.65;4.25;;;;;;;20.00;65.94;97595.09;5033345;28;20109;-79
2021/06/03 05:22:33;;;;;;;5.47;4.88;;;;;;;20.13;65.88;97593.50;5050555;28;20028;-79
2021/06/03 05:24:59;;;;;;;4.50;4.10;;;;;;;20.22;65.66;97594.38;5034298;28;20491;-79
2021/06/03 05:27:24;;;;;;;4.60;3.90;;;;;;;20.28;65.49;97590.53;5051544;28;20028;-79
2021/06/03 05:29:49;;;;;;;5.07;4.53;;;;;;;20.39;65.12;97594.53;5055172;28;20039;-79
2021/06/03 05:32:15;;;;;;;5.25;4.75;;;;;;;20.46;65.31;97601.25;5030276;28;20068;-79
2021/06/03 05:34:40;;;;;;;4.70;4.30;;;;;;;20.53;64.76;97585.78;5046788;28;20045;-79
2021/06/03 05:37:05;;;;;;;4.88;4.30;;;;;;;20.65;65.05;97604.56;5067943;28;20032;-79
2021/06/03 05:39:31;;;;;;;5.00;4.50;;;;;;;20.74;65.25;97608.06;5050817;28;20021;-79
2021/06/03 05:41:56;;;;;;;5.15;4.53;;;;;;;20.83;64.98;97608.13;5034032;28;20025;-79
2021/06/03 05:44:22;;;;;;;4.32;3.92;;;;;;;20.93;64.75;97615.06;5034578;28;20028;-79
2021/06/03 05:46:47;;;;;;;4.78;4.32;;;;;;;21.07;63.82;97615.75;5015286;28;20036;-80
2021/06/03 05:49:13;;;;;;;5.72;3.40;;;;;;;21.17;63.49;97619.25;5014621;28;20035;-80
2021/06/03 05:51:40;;;;;;;5.60;4.55;;;;;;;21.17;63.83;97620.03;5017920;28;20025;-80
2021/06/03 05:54:06;;;;;;;7.57;4.53;;;;;;;21.31;63.33;97625.25;5033921;28;20479;-79
2021/06/03 05:56:32;;;;;;;4.25;3.42;;;;;;;21.40;63.01;97634.03;5050981;28;20033;-80
2021/06/03 05:58:58;;;;;;;5.32;3.97;;;;;;;21.51;62.93;97639.91;5033757;28;20043;-80
2021/06/03 06:01:25;;;;;;;4.50;3.60;;;;;;;21.53;61.53;97636.94;5048727;28;20468;-80
2021/06/03 06:06:25;;;;;;;4.50;4.10;;;;;;;21.76;60.56;97641.06;5048730;28;20033;-80
2021/06/03 06:08:55;;;;;;;3.95;3.55;;;;;;;21.65;61.06;97650.41;5047610;28;20376;-80
2021/06/03 06:11:21;;;;;;;4.18;3.78;;;;;;;21.85;60.73;97657.81;5050829;28;20036;-80
2021/06/03 06:13:47;;;;;;;4.28;3.88;;;;;;;21.94;60.62;97651.78;5034402;28;20471;-79
2021/06/03 06:16:13;;;;;;;6.05;4.53;;;;;;;21.97;60.55;97651.94;5033838;28;20136;-80
2021/06/03 06:18:40;;;;;;;6.15;4.57;;;;;;;22.08;61.82;97660.38;5028419;28;20056;-80
2021/06/03 06:21:05;;;;;;;4.35;3.70;;;;;;;22.07;59.59;97656.97;5033881;28;20103;-80
2021/06/03 06:23:36;;;;;;;5.88;4.05;;;;;;;22.09;60.96;97656.66;5032558;28;20112;-80
2021/06/03 06:26:03;;;;;;;3.47;3.17;;;;;;;22.35;58.75;97654.09;5017514;28;20028;-80
2021/06/03 06:28:28;;;;;;;4.15;3.80;;;;;;;22.53;59.88;97662.84;5049892;28;20040;-80
2021/06/03 06:30:54;;;;;;;4.28;3.25;;;;;;;22.68;57.95;97668.81;5034066;28;20029;-80
2021/06/03 06:33:20;;;;;;;5.28;3.67;;;;;;;22.67;57.11;97669.91;5030218;28;20032;-80
2021/06/03 06:35:48;;;;;;;4.45;3.60;;;;;;;22.86;57.88;97672.25;5033332;28;20059;-80
2021/06/03 06:38:14;;;;;;;4.30;3.35;;;;;;;22.95;57.73;97679.13;5050493;28;20426;-80
2021/06/03 06:40:39;;;;;;;3.97;3.58;;;;;;;23.02;56.88;97683.97;5050023;28;20035;-80
2021/06/03 06:43:05;;;;;;;4.32;3.92;;;;;;;23.09;57.44;97678.22;5033327;28;20078;-80
2021/06/03 06:45:31;;;;;;;3.72;3.42;;;;;;;23.21;57.12;97674.94;5016822;28;20032;-80
2021/06/03 06:47:57;;;;;;;4.72;3.97;;;;;;;23.29;57.62;97682.09;5053586;28;20048;-80
2021/06/03 06:50:23;;;;;;;4.35;3.65;;;;;;;23.15;56.74;97666.31;5036854;28;20037;-80
2021/06/03 06:52:49;;;;;;;3.60;3.22;;;;;;;23.24;57.34;97674.31;5026840;28;20086;-80
2021/06/03 06:55:14;;;;;;;4.47;3.88;;;;;;;23.26;57.64;97677.41;5026585;28;20555;-80
2021/06/03 06:57:40;;;;;;;3.85;3.38;;;;;;;23.34;56.54;97673.97;5046455;28;20036;-80
2021/06/03 07:00:10;;;;;;;4.00;3.60;;;;;;;23.44;56.64;97681.63;5013432;28;20029;-80
2021/06/03 07:02:36;;;;;;;3.92;3.55;;;;;;;23.39;55.73;97673.81;5028123;28;20511;-79
2021/06/03 07:05:07;;;;;;;4.63;3.95;;;;;;;23.47;56.35;97674.88;5036391;28;20035;-80
2021/06/03 07:07:33;;;;;;;4.32;3.70;;;;;;;23.56;56.41;97686.25;5053445;28;20032;-80
2021/06/03 07:09:58;;;;;;;3.72;3.42;;;;;;;23.62;56.29;97684.22;5017070;28;20025;-80
2021/06/03 07:12:24;;;;;;;3.63;3.33;;;;;;;23.72;54.55;97684.66;5023317;28;20032;-80
2021/06/03 07:14:49;;;;;;;3.83;3.53;;;;;;;23.74;56.18;97671.81;5004235;28;20040;-80
2021/06/03 07:17:16;;;;;;;4.78;4.05;;;;;;;23.88;54.72;97670.88;5068132;28;20475;-80
2021/06/03 07:19:42;;;;;;;5.03;3.45;;;;;;;24.04;54.15;97679.88;5046225;28;20028;-80
2021/06/03 07:22:07;;;;;;;4.15;3.55;;;;;;;24.10;54.25;97681.25;5026270;28;20036;-80
2021/06/03 07:24:36;;;;;;;4.28;3.88;;;;;;;23.94;54.72;97682.91;5030533;28;20055;-80
2021/06/03 07:27:05;;;;;;;4.47;3.55;;;;;;;24.15;54.15;97680.28;5030681;28;20056;-80
2021/06/03 07:29:30;;;;;;;4.97;3.78;;;;;;;24.35;53.01;97684.09;5039528;28;20028;-80
2021/06/03 07:31:56;;;;;;;4.00;3.22;;;;;;;24.46;53.55;97690.59;5040868;28;20381;-80
2021/06/03 07:34:21;;;;;;;4.82;3.65;;;;;;;24.37;53.85;97681.91;5062791;28;20037;-80
2021/06/03 07:36:46;;;;;;;3.60;3.28;;;;;;;24.57;52.59;97680.38;5046411;28;20489;-80
2021/06/03 07:39:12;;;;;;;3.47;3.17;;;;;;;24.64;51.65;97678.00;5052712;28;20028;-80
2021/06/03 07:41:38;;;;;;;5.03;3.80;;;;;;;24.71;52.94;97680.16;5017646;28;20020;-80
2021/06/03 07:44:04;;;;;;;4.22;3.80;;;;;;;24.95;51.88;97679.47;5051093;28;20086;-80
2021/06/03 07:46:30;;;;;;;3.50;3.20;;;;;;;25.23;50.67;97679.69;5025289;28;20024;-80
2021/06/03 07:48:55;;;;;;;4.10;3.67;;;;;;;25.27;51.97;97671.06;5045523;28;20292;-80
2021/06/03 07:51:20;;;;;;;3.95;3.45;;;;;;;25.52;51.29;97686.03;5028433;28;20060;-80
2021/06/03 07:53:46;;;;;;;4.57;3.63;;;;;;;25.77;48.82;97683.41;5047336;28;20032;-80
2021/06/03 07:56:11;;;;;;;3.67;3.38;;;;;;;26.02;47.71;97678.13;5052633;28;20024;-80
2021/06/03 07:58:36;;;;;;;3.80;3.50;;;;;;;26.25;48.94;97681.91;5067171;28;20021;-80
2021/06/03 08:01:02;;;;;;;3.42;3.13;;;;;;;26.69;46.34;97675.94;5016795;28;20032;-80
2021/06/03 08:03:28;;;;;;;3.83;3.53;;;;;;;26.79;47.21;97685.41;5026355;28;20029;-80
2021/06/03 08:05:54;;;;;;;3.83;3.28;;;;;;;27.10;47.32;97685.50;5019785;28;20442;-80
2021/06/03 08:08:20;;;;;;;3.53;3.22;;;;;;;27.30;46.86;97687.56;5029880;28;20036;-80
2021/06/03 08:10:46;;;;;;;3.60;3.30;;;;;;;27.68;44.76;97681.66;5035432;28;20032;-79
2021/06/03 08:13:12;;;;;;;4.00;3.63;;;;;;;27.90;45.98;97682.97;5013277;28;20060;-79
2021/06/03 08:15:40;;;;;;;3.60;3.30;;;;;;;28.23;43.26;97681.06;5030706;28;20067;-79
2021/06/03 08:18:06;;;;;;;3.78;3.45;;;;;;;28.37;45.05;97679.47;5069534;28;20367;-79
2021/06/03 08:20:38;;;;;;;3.63;3.33;;;;;;;28.33;46.34;97683.19;5047756;28;20024;-77
2021/06/03 08:23:06;;;;;;;3.55;3.25;;;;;;;28.51;43.49;97683.56;5019408;28;20365;-79
2021/06/03 08:25:32;;;;;;;4.47;3.20;;;;;;;28.70;43.72;97691.69;5024175;28;20082;-77
2021/06/03 08:27:58;;;;;;;3.42;3.13;;;;;;;28.74;42.90;97681.81;5029211;28;20024;-78
2021/06/03 08:30:24;;;;;;;3.33;3.10;;;;;;;29.43;42.17;97677.75;5046833;28;20029;-79
2021/06/03 08:32:51;;;;;;;2.80;2.60;;;;;;;29.90;41.43;97673.94;5044221;28;20094;-79
2021/06/03 08:35:19;;;;;;;3.58;3.28;;;;;;;30.16;39.64;97680.47;5051867;28;20067;-78
2021/06/03 08:37:45;;;;;;;3.28;2.97;;;;;;;30.30;39.42;97688.75;5045638;28;20235;-79
2021/06/03 08:40:13;;;;;;;3.35;3.15;;;;;;;30.03;39.04;97693.34;4997655;28;20036;-79
2021/06/03 08:42:39;;;;;;;3.88;3.38;;;;;;;29.59;39.66;97691.81;5043592;28;20566;-79
2021/06/03 08:45:05;;;;;;;3.40;3.20;;;;;;;28.50;43.63;97690.06;5026703;28;20056;-79
2021/06/03 08:47:32;;;;;;;4.13;3.70;;;;;;;28.36;42.64;97698.56;5018630;28;20085;-79
2021/06/03 08:50:00;;;;;;;3.40;3.17;;;;;;;27.96;43.10;97691.53;5051453;28;20028;-79
2021/06/03 08:52:26;;;;;;;7.45;3.83;;;;;;;27.90;44.24;97690.19;5048995;28;20020;-79
2021/06/03 08:54:54;;;;;;;3.28;2.97;;;;;;;27.54;45.15;97698.13;5045040;28;20085;-79
2021/06/03 08:57:20;;;;;;;3.83;3.50;;;;;;;27.45;45.66;97702.84;5052288;28;20029;-79
2021/06/03 08:59:46;;;;;;;4.28;3.53;;;;;;;27.84;43.66;97701.16;5018097;28;20040;-79
2021/06/03 09:02:11;;;;;;;3.40;3.20;;;;;;;27.98;43.56;97694.63;5029325;28;20033;-79
2021/06/03 09:04:37;;;;;;;3.90;3.60;;;;;;;28.14;43.25;97695.41;5028247;28;20191;-79
2021/06/03 09:07:02;;;;;;;3.67;3.38;;;;;;;27.96;43.51;97689.63;5030641;28;20028;-79
2021/06/03 09:09:30;;;;;;;4.10;3.80;;;;;;;27.77;44.53;97695.63;5040310;28;20081;-79
2021/06/03 09:12:18;;;;;;;3.58;3.28;;;;;;;27.74;46.27;97688.28;5024042;28;20029;-80
2021/06/03 09:14:44;;;;;;;3.30;3.00;;;;;;;28.60;42.72;97688.75;5034908;28;20032;-79
2021/06/03 09:17:10;;;;;;;3.53;3.22;;;;;;;28.92;41.30;97700.91;5051391;28;20037;-79
2021/06/03 09:19:50;;;;;;;3.60;3.30;;;;;;;28.64;40.48;97697.66;5028116;28;20028;-79
2021/06/03 09:22:41;;;;;;;3.47;3.17;;;;;;;28.03;42.23;97699.72;5011487;28;20043;-79
2021/06/03 09:25:40;;;;;;;3.97;3.38;;;;;;;27.65;43.96;97701.06;5018138;28;20093;-79
2021/06/03 09:28:29;;;;;;;3.70;3.40;;;;;;;27.30;44.82;97698.25;5009971;28;20078;-79
2021/06/03 09:31:18;;;;;;;3.20;3.00;;;;;;;27.15;46.18;97699.75;5037488;28;20032;-79
2021/06/03 09:33:45;;;;;;;3.92;3.63;;;;;;;27.41;45.35;97704.66;5039757;28;20046;-79
2021/06/03 09:36:14;;;;;;;3.10;2.90;;;;;;;27.41;44.09;97700.09;5066720;28;20032;-79
2021/06/03 09:38:54;;;;;;;3.05;2.85;;;;;;;27.67;44.38;97698.81;5041794;28;20110;-79
2021/06/03 09:41:20;;;;;;;3.25;3.05;;;;;;;27.94;42.50;97693.78;5029940;28;20025;-78
2021/06/03 09:43:46;;;;;;;3.30;2.70;;;;;;;28.24;41.79;97698.66;5031578;28;20047;-78
2021/06/03 09:46:16;;;;;;;3.63;2.83;;;;;;;28.40;43.67;97692.16;5043370;28;20479;-78
2021/06/03 09:48:44;;;;;;;3.40;3.20;;;;;;;28.74;40.14;97697.88;5018550;28;20091;-79
2021/06/03 09:51:24;;;;;;;3.47;3.10;;;;;;;28.93;42.96;97702.47;5015121;28;20048;-79
2021/06/03 09:53:51;;;;;;;3.95;2.85;;;;;;;29.76;41.60;97690.59;5031828;28;20032;-78
2021/06/03 09:56:25;;;;;;;3.58;3.38;;;;;;;30.21;39.67;97694.38;5045656;28;20054;-78
2021/06/03 09:58:52;;;;;;;3.53;3.22;;;;;;;30.42;38.63;97699.31;5007536;28;20039;-79
2021/06/03 10:01:39;;;;;;;3.35;3.08;;;;;;;30.11;39.68;97699.56;4999267;28;20489;-78
2021/06/03 10:04:06;;;;;;;3.65;3.15;;;;;;;30.17;37.48;97690.84;5037800;28;20077;-79
2021/06/03 10:06:32;;;;;;;2.60;2.40;;;;;;;29.99;39.15;97693.28;5043486;28;20025;-78
2021/06/03 10:08:57;;;;;;;3.85;3.00;;;;;;;29.86;40.20;97691.91;5026500;28;20028;-78
2021/06/03 10:11:48;;;;;;;3.17;2.97;;;;;;;29.29;39.51;97692.47;5046669;28;20037;-78
2021/06/03 10:14:16;;;;;;;4.25;3.22;;;;;;;29.39;38.74;97693.00;5032270;28;20033;-78
2021/06/03 10:16:42;;;;;;;3.15;2.95;;;;;;;28.86;41.14;97694.28;5033202;28;20032;-80
2021/06/03 10:19:22;;;;;;;3.00;2.80;;;;;;;28.47;42.86;97688.84;5037494;28;20075;-78
2021/06/03 10:22:11;;;;;;;3.33;3.03;;;;;;;29.27;39.42;97684.00;4998574;28;20430;-78
2021/06/03 10:24:46;;;;;;;2.85;2.50;;;;;;;29.72;36.96;97688.97;5024934;28;20431;-78
2021/06/03 10:27:12;;;;;;;3.17;2.88;;;;;;;29.74;36.75;97687.47;5040018;28;20036;-78
2021/06/03 10:29:39;;;;;;;3.65;3.35;;;;;;;29.84;39.21;97680.78;5023606;28;20090;-79
2021/06/03 10:32:05;;;;;;;3.30;3.10;;;;;;;30.15;38.17;97674.34;5048865;28;20044;-78
2021/06/03 10:34:30;;;;;;;3.22;2.97;;;;;;;30.13;38.93;97681.22;5041169;28;20400;-79
2021/06/03 10:36:56;;;;;;;3.08;2.85;;;;;;;29.93;38.26;97678.59;5030300;28;20033;-78
2021/06/03 10:39:22;;;;;;;3.47;3.17;;;;;;;29.67;38.63;97682.00;5036379;28;20027;-78
2021/06/03 10:41:47;;;;;;;2.90;2.70;;;;;;;29.36;40.31;97672.28;5051328;28;20032;-78
2021/06/03 10:44:13;;;;;;;3.13;2.83;;;;;;;29.09;41.80;97670.22;5033243;28;20029;-78
2021/06/03 10:46:42;;;;;;;3.45;3.15;;;;;;;28.81;42.26;97675.81;5051787;28;20029;-78
2021/06/03 10:49:08;;;;;;;3.25;3.05;;;;;;;28.88;40.59;97670.59;5013794;28;20647;-78
2021/06/03 10:51:33;;;;;;;3.10;2.80;;;;;;;28.70;39.85;97674.81;5053756;28;20032;-78
2021/06/03 10:53:59;;;;;;;5.30;3.03;;;;;;;28.61;41.22;97682.28;5048941;28;20029;-78
2021/06/03 10:56:27;;;;;;;4.00;3.20;;;;;;;28.43;43.95;97674.63;5014261;28;20035;-78
2021/06/03 10:58:54;;;;;;;3.30;3.10;;;;;;;29.08;41.50;97662.53;5038299;28;20032;-78
2021/06/03 11:01:21;;;;;;;3.50;3.20;;;;;;;29.52;41.62;97665.63;5030397;28;20052;-78
2021/06/03 11:03:49;;;;;;;3.80;3.50;;;;;;;29.59;39.25;97669.59;5029546;28;20550;-79
2021/06/03 11:06:20;;;;;;;3.40;3.20;;;;;;;29.44;39.53;97671.25;5024398;28;20032;-78
2021/06/03 11:09:05;;;;;;;3.38;3.13;;;;;;;29.23;39.45;97669.72;5027043;28;20522;-78
2021/06/03 11:11:35;;;;;;;3.47;3.28;;;;;;;28.95;40.24;97670.72;5045232;28;20032;-79
2021/06/03 11:14:18;;;;;;;3.40;3.20;;;;;;;29.23;39.92;97666.28;5055306;28;20040;-79
2021/06/03 11:16:46;;;;;;;3.08;2.88;;;;;;;29.65;39.46;97662.81;5022049;28;20445;-78
2021/06/03 11:19:12;;;;;;;3.55;3.30;;;;;;;29.76;39.17;97661.06;5039166;28;20029;-78
2021/06/03 11:21:38;;;;;;;4.32;3.20;;;;;;;29.75;40.21;97661.41;5019702;28;20021;-78
2021/06/03 11:24:36;;;;;;;3.50;3.25;;;;;;;29.41;39.30;97667.38;5037535;28;20545;-79
2021/06/03 11:27:22;;;;;;;3.15;2.95;;;;;;;29.12;42.09;97660.69;5024966;28;20248;-78
2021/06/03 11:29:47;;;;;;;3.55;3.25;;;;;;;29.25;41.41;97661.34;5028769;28;20044;-78
2021/06/03 11:32:12;;;;;;;3.10;2.90;;;;;;;29.20;41.00;97664.31;5018538;28;20044;-77
2021/06/03 11:34:38;;;;;;;3.83;3.22;;;;;;;29.30;39.81;97656.47;5058676;28;20052;-78
2021/06/03 11:37:06;;;;;;;3.47;3.20;;;;;;;29.13;41.72;97656.88;5052479;28;20067;-78
2021/06/03 11:39:31;;;;;;;2.88;2.60;;;;;;;29.45;38.98;97648.66;5002885;28;20020;-78